Terminal Aerodrome Forecast
Issued by NWS

Home | Current Version | Previous Version | Text Only | Print | Product List | Glossary On
Versions: 1 2 3 4 5 6 7 8 9 10 11 12 13 14 15 16 17 18 19 20 21 22 23 24 25
000
FTUS43 KDLH 200500
TAFHYR
TAF
KHYR 200531Z 2006/2106 19003KT P6SM BKN050
      TEMPO 2008/2012 2SM BR SCT008
     FM201500 19012KT P6SM SCT040 BKN200
     FM210100 18005KT P6SM SCT050=

USA.gov is the U.S. government's official web portal to all federal, state and local government web resources and services.